EmailTwitter


Observations de surface / Royaume-Uni / EGLL (03772)

Régions: Québec | Canada | États-Unis | Europe | France | UK | Ailleurs
Station
Affichage
Infos & localisation pour EGLL (03772) | Aide pour décoder les METARs

Observations prises le 2017-11-19 à 17H20 UTC à LONDON/HEATHROW, UK (EGLL)

Température: 7.0 Celsius

Point de rosée: 2.0 Celsius

Humidité relative: 70%

Vents: Ouest à 9 km/h ou 5 noeuds.

Pression au niveau moyen de la mer: 102.40 kilopascals.

Visibilité horizontale: 6.21 milles terrestres ou 9.94 kilomètres.

Observation METAR:

EGLL 191720Z AUTO 28005KT 9999 NCD 07/02 Q1024 NOSIG=